This is the latest recevied weather packets stored in our database for station/object KD2FGL-13. If no packets are shown the sender has not sent any weather packets the latest 10 day(s).
| Time | Temp. | Humidity | Pressure | Rain* | Wind** | Luminosity | Snow |
|---|---|---|---|---|---|---|---|
| 1787544667 | 21.11° C | 54% | 1014.5 hPa | 0 mm | - | - | - |
| 1787544363 | 21.11° C | 54% | 1014.4 hPa | 0 mm | - | - | - |
| 1787543755 | 21.11° C | 54% | 1014.4 hPa | 0 mm | - | - | - |
| 1787531598 | 25.56° C | 45% | 1012.6 hPa | 0 mm | - | - | - |
| 1787530686 | 26.11° C | 43% | 1012.4 hPa | 0 mm | - | - | - |
| 1787530382 | 26.11° C | 43% | 1012.4 hPa | 0 mm | - | - | - |
| 1787530079 | 26.67° C | 42% | 1012.1 hPa | 0 mm | - | - | - |
| 1787529774 | 26.67° C | 42% | 1012 hPa | 0 mm | - | - | - |
| 1787528254 | 27.78° C | 39% | 1011.8 hPa | 0 mm | - | - | - |
| 1787525519 | 29.44° C | 37% | 1011.3 hPa | 0 mm | - | - | - |
| 1787524303 | 29.44° C | 36% | 1011.2 hPa | 0 mm | - | - | - |
| 1787522480 | 30° C | 35% | 1011 hPa | 0 mm | - | - | - |
| 1787521264 | 30° C | 35% | 1010.8 hPa | 0 mm | - | - | - |
| 1787519440 | 30° C | 36% | 1010.6 hPa | 0 mm | - | - | - |
| 1787519137 | 29.44° C | 36% | 1010.6 hPa | 0 mm | - | - | - |
| 1787518529 | 29.44° C | 36% | 1010.6 hPa | 0 mm | - | - | - |
| 1787517921 | 28.89° C | 37% | 1010.6 hPa | 0 mm | - | - | - |
| 1787517016 | 28.89° C | 37% | 1010.4 hPa | 0 mm | - | - | - |
| 1787516706 | 28.89° C | 37% | 1010.5 hPa | 0 mm | - | - | - |
| 1787515490 | 28.89° C | 38% | 1010.4 hPa | 0 mm | - | - | - |
| 1787514882 | 28.33° C | 39% | 1010.4 hPa | 0 mm | - | - | - |
| 1787514274 | 28.33° C | 40% | 1010.5 hPa | 0 mm | - | - | - |
| 1787513060 | 29.44° C | 37% | 1010.7 hPa | 0 mm | - | - | - |
* Rain since midnight (hover to see other rain measurements)
** Current wind speed in m/s (hover to see current wind gust speed)